Time;durP1;ratioP1;P1;durP2;ratioP2;P2;SDS_P1;SDS_P2;PMS_P1;PMS_P2;Temp;Humidity;BMP_temperature;BMP_pressure;BME280_temperature;BME280_humidity;BME280_pressure;Samples;Min_cycle;Max_cycle;Signal;HPM_P1;HPM_P2
2021/07/22 00:01:16;;;;;;;7.35;4.90;;;;;;;20.04;56.95;100304.59;2205609;40;20049;-83
2021/07/22 00:02:50;;;;;;;8.18;4.82;;;;;;;20.07;57.23;100301.50;2205245;40;20027;-81
2021/07/22 00:04:22;;;;;;;7.60;4.55;;;;;;;20.09;57.17;100302.13;2206115;40;20053;-81
2021/07/22 00:05:53;;;;;;;9.65;4.80;;;;;;;20.14;56.87;100306.94;2205578;40;20596;-82
2021/07/22 00:07:24;;;;;;;9.52;4.55;;;;;;;20.14;56.97;100306.09;2205522;40;20033;-81
2021/07/22 00:08:55;;;;;;;7.15;4.75;;;;;;;20.14;57.03;100300.66;2205304;40;20050;-82
2021/07/22 00:10:27;;;;;;;7.35;4.47;;;;;;;20.10;57.14;100298.38;2206800;40;20035;-83
2021/07/22 00:11:59;;;;;;;9.30;4.40;;;;;;;20.09;57.11;100301.28;2207153;40;20022;-83
2021/07/22 00:13:31;;;;;;;10.55;5.47;;;;;;;20.05;57.10;100295.41;2206560;40;20026;-83
2021/07/22 00:15:03;;;;;;;8.57;4.57;;;;;;;20.03;57.44;100293.94;2207984;40;20046;-83
2021/07/22 00:16:34;;;;;;;10.48;4.50;;;;;;;20.03;57.45;100297.50;2209965;40;20030;-84
2021/07/22 00:18:07;;;;;;;7.15;4.00;;;;;;;20.06;57.33;100297.09;2210752;40;20037;-83
2021/07/22 00:19:39;;;;;;;10.30;5.00;;;;;;;20.04;57.22;100296.44;2207413;40;20473;-83
2021/07/22 00:21:11;;;;;;;10.48;4.63;;;;;;;20.01;57.34;100299.59;2208234;40;20029;-84
2021/07/22 00:22:42;;;;;;;8.02;4.63;;;;;;;19.99;57.25;100301.66;2207472;40;20039;-83
2021/07/22 00:24:14;;;;;;;8.07;4.85;;;;;;;19.99;57.57;100293.53;2208974;40;20108;-81
2021/07/22 00:25:46;;;;;;;12.55;5.07;;;;;;;19.95;57.51;100289.53;2206359;40;20041;-84
2021/07/22 00:27:17;;;;;;;9.07;5.20;;;;;;;19.90;57.71;100297.44;2207959;40;20042;-83
2021/07/22 00:28:48;;;;;;;7.43;4.65;;;;;;;19.85;58.12;100291.72;2206712;40;20054;-82
2021/07/22 00:30:20;;;;;;;9.73;5.18;;;;;;;19.82;58.04;100289.44;2207250;40;20053;-82
2021/07/22 00:31:52;;;;;;;7.32;5.22;;;;;;;19.78;58.24;100294.41;2206320;40;20438;-82
2021/07/22 00:33:24;;;;;;;10.35;4.82;;;;;;;19.76;58.04;100286.47;2206019;40;20038;-83
2021/07/22 00:34:56;;;;;;;10.18;5.25;;;;;;;19.77;58.36;100284.59;2205347;40;20031;-82
2021/07/22 00:36:28;;;;;;;8.68;4.97;;;;;;;19.72;58.65;100296.06;2205583;40;20035;-82
2021/07/22 00:37:59;;;;;;;9.63;4.40;;;;;;;19.68;58.57;100291.22;2205467;40;20060;-82
2021/07/22 00:39:31;;;;;;;8.98;5.22;;;;;;;19.66;58.99;100291.41;2205634;40;20098;-83
2021/07/22 00:41:04;;;;;;;7.88;5.10;;;;;;;19.64;59.17;100299.75;2205364;40;20030;-84
2021/07/22 00:42:57;;;;;;;11.88;5.80;;;;;;;19.58;59.40;100302.41;2202051;40;20031;-83
2021/07/22 00:44:29;;;;;;;9.25;5.35;;;;;;;19.53;59.24;100299.47;2200238;40;20050;-84
2021/07/22 00:46:01;;;;;;;11.70;5.40;;;;;;;19.52;59.56;100290.47;2205036;40;20039;-83
2021/07/22 00:47:33;;;;;;;8.30;5.15;;;;;;;19.55;59.40;100298.22;2205036;40;20051;-81
2021/07/22 00:49:10;;;;;;;10.38;5.28;;;;;;;19.56;59.46;100301.75;2204164;40;20065;-82
2021/07/22 00:50:41;;;;;;;9.10;4.70;;;;;;;19.52;59.13;100290.47;2204034;40;20058;-82
2021/07/22 00:52:13;;;;;;;12.38;4.85;;;;;;;19.51;59.27;100294.22;2206138;40;20060;-81
2021/07/22 00:53:45;;;;;;;9.73;5.15;;;;;;;19.49;59.43;100290.91;2205983;40;20260;-82
2021/07/22 00:55:22;;;;;;;9.95;5.07;;;;;;;19.53;59.26;100294.03;2205793;40;20123;-83
2021/07/22 00:56:54;;;;;;;16.20;5.90;;;;;;;19.49;59.27;100289.00;2205422;40;20030;-82
2021/07/22 00:58:26;;;;;;;7.30;4.80;;;;;;;19.42;59.15;100282.72;2209675;40;20045;-83
2021/07/22 00:59:58;;;;;;;11.48;5.43;;;;;;;19.42;59.24;100287.28;2205793;40;20043;-82
2021/07/22 01:01:29;;;;;;;9.65;4.25;;;;;;;19.41;59.30;100283.75;2207666;40;20039;-85
2021/07/22 01:03:00;;;;;;;8.95;5.43;;;;;;;19.41;59.10;100277.50;2208781;40;20116;-84
2021/07/22 01:04:33;;;;;;;7.47;4.63;;;;;;;19.40;59.38;100276.63;2208058;40;20034;-83
2021/07/22 01:06:05;;;;;;;10.48;5.70;;;;;;;19.37;59.26;100276.19;2207967;40;20027;-82
2021/07/22 01:07:37;;;;;;;10.15;5.28;;;;;;;19.37;59.37;100276.19;2208528;40;20053;-85
2021/07/22 01:09:09;;;;;;;11.10;5.28;;;;;;;19.35;59.43;100278.25;2211260;40;20021;-84
2021/07/22 01:10:40;;;;;;;10.20;5.35;;;;;;;19.36;59.62;100282.66;2208773;40;20030;-83
2021/07/22 01:12:11;;;;;;;11.57;5.25;;;;;;;19.34;59.49;100282.84;2207464;40;20034;-82
2021/07/22 01:13:43;;;;;;;11.05;5.90;;;;;;;19.31;59.80;100280.53;2205720;40;20069;-82
2021/07/22 01:15:15;;;;;;;12.48;5.65;;;;;;;19.28;59.67;100284.47;2205272;40;20034;-81
2021/07/22 01:16:47;;;;;;;10.23;5.22;;;;;;;19.26;59.97;100281.13;2205751;40;20037;-81
2021/07/22 01:18:18;;;;;;;8.95;5.65;;;;;;;19.24;59.94;100276.94;2203630;40;20069;-81
2021/07/22 01:19:50;;;;;;;10.55;5.25;;;;;;;19.22;59.64;100284.41;2199925;40;20545;-81
2021/07/22 01:21:24;;;;;;;9.27;5.05;;;;;;;19.21;59.76;100277.31;2201133;40;20057;-81
2021/07/22 01:22:57;;;;;;;8.95;5.72;;;;;;;19.17;59.73;100285.00;2205430;40;20114;-80
2021/07/22 01:24:29;;;;;;;9.55;5.05;;;;;;;19.11;59.86;100283.91;2196106;40;20038;-83
2021/07/22 01:26:00;;;;;;;14.27;6.35;;;;;;;19.09;59.95;100288.69;2205394;40;20305;-82
2021/07/22 01:27:32;;;;;;;11.98;6.47;;;;;;;19.06;59.88;100274.69;2203550;40;20041;-82
2021/07/22 01:29:05;;;;;;;12.25;6.30;;;;;;;19.02;60.08;100274.25;2205849;40;20045;-82
2021/07/22 01:30:36;;;;;;;13.07;7.47;;;;;;;19.01;60.12;100272.56;2205366;40;20042;-82
2021/07/22 01:32:08;;;;;;;13.18;7.30;;;;;;;18.94;60.36;100277.09;2206386;40;20035;-81
2021/07/22 01:33:40;;;;;;;8.68;5.63;;;;;;;18.88;60.33;100277.84;2205696;40;20041;-82
2021/07/22 01:35:12;;;;;;;10.43;7.20;;;;;;;18.88;60.47;100278.69;2205521;40;20037;-81
2021/07/22 01:36:45;;;;;;;7.82;4.93;;;;;;;18.81;60.65;100269.66;2204532;40;20039;-82
2021/07/22 01:38:17;;;;;;;12.00;6.57;;;;;;;18.79;60.59;100269.00;2206693;40;20064;-82
2021/07/22 01:39:47;;;;;;;11.75;6.60;;;;;;;18.71;60.70;100272.66;2205177;40;20027;-82
2021/07/22 01:41:19;;;;;;;10.20;6.03;;;;;;;18.64;60.90;100272.63;2205491;40;20041;-81
2021/07/22 01:42:51;;;;;;;8.68;5.80;;;;;;;18.63;61.13;100270.09;2206503;40;20041;-81
2021/07/22 01:44:22;;;;;;;9.40;5.20;;;;;;;18.63;61.43;100270.09;2211133;40;20080;-82
2021/07/22 01:45:54;;;;;;;9.05;5.63;;;;;;;18.64;61.23;100266.34;2206715;40;20507;-83
2021/07/22 01:47:24;;;;;;;11.02;5.72;;;;;;;18.65;61.16;100268.03;2203267;40;20031;-83
2021/07/22 01:48:57;;;;;;;9.45;5.57;;;;;;;18.62;60.89;100260.28;2204260;40;20109;-83
2021/07/22 01:50:29;;;;;;;10.20;5.68;;;;;;;18.64;61.11;100261.78;2206619;40;20050;-80
2021/07/22 01:52:02;;;;;;;9.63;4.82;;;;;;;18.68;60.81;100267.66;2208491;40;20030;-81
2021/07/22 01:53:34;;;;;;;8.27;5.32;;;;;;;18.61;61.21;100262.16;2201089;40;20054;-81
2021/07/22 01:55:06;;;;;;;8.15;5.15;;;;;;;18.56;61.25;100259.22;2203884;40;20030;-81
2021/07/22 01:56:37;;;;;;;9.45;5.18;;;;;;;18.51;61.13;100251.66;2212317;40;20380;-82
2021/07/22 01:58:09;;;;;;;7.20;4.97;;;;;;;18.53;61.30;100248.75;2213654;40;20045;-81
2021/07/22 01:59:40;;;;;;;6.93;4.40;;;;;;;18.54;60.95;100256.69;2212819;40;20030;-81
2021/07/22 02:01:11;;;;;;;7.10;4.85;;;;;;;18.54;61.16;100253.16;2214489;40;20068;-81
2021/07/22 02:02:43;;;;;;;8.80;5.10;;;;;;;18.49;60.93;100253.72;2209701;40;20027;-81
2021/07/22 02:04:15;;;;;;;6.15;4.63;;;;;;;18.43;61.30;100259.88;2208781;40;20049;-81
2021/07/22 02:05:47;;;;;;;9.13;4.70;;;;;;;18.47;61.02;100258.47;2207975;40;20515;-82
2021/07/22 02:07:20;;;;;;;6.88;4.45;;;;;;;18.51;60.72;100256.22;2207333;40;20042;-80
2021/07/22 02:08:51;;;;;;;10.57;4.60;;;;;;;18.53;60.59;100256.88;2208238;40;20031;-79
2021/07/22 02:10:22;;;;;;;9.70;5.00;;;;;;;18.51;60.54;100262.50;2208375;40;20045;-81
2021/07/22 02:11:54;;;;;;;9.18;4.80;;;;;;;18.51;60.56;100258.94;2212104;40;20034;-81
2021/07/22 02:13:27;;;;;;;8.68;5.57;;;;;;;18.49;60.57;100256.44;2211538;40;20437;-81
2021/07/22 02:14:59;;;;;;;9.52;5.53;;;;;;;18.43;61.06;100268.00;2215003;40;20057;-81
2021/07/22 02:16:30;;;;;;;10.13;4.75;;;;;;;18.36;61.11;100273.38;2208848;40;20027;-81
2021/07/22 02:18:01;;;;;;;9.57;5.18;;;;;;;18.30;61.33;100262.47;2210129;40;20038;-81
2021/07/22 02:19:33;;;;;;;6.70;4.45;;;;;;;18.34;60.94;100272.72;2209411;40;20026;-82
2021/07/22 02:21:05;;;;;;;9.73;5.45;;;;;;;18.34;60.79;100263.72;2207192;40;20041;-81
2021/07/22 02:22:38;;;;;;;8.15;5.20;;;;;;;18.26;61.04;100259.28;2207103;40;20404;-82
2021/07/22 02:24:11;;;;;;;8.13;5.20;;;;;;;18.21;61.21;100264.44;2206064;40;20050;-82
2021/07/22 02:25:43;;;;;;;8.32;4.97;;;;;;;18.19;61.11;100264.63;2208439;40;20049;-81
2021/07/22 02:27:14;;;;;;;9.90;5.57;;;;;;;18.23;60.81;100265.91;2209081;40;20026;-82
2021/07/22 02:28:47;;;;;;;8.73;5.20;;;;;;;18.15;60.92;100263.31;2208811;40;20050;-81
2021/07/22 02:30:19;;;;;;;10.40;5.07;;;;;;;18.11;61.02;100267.44;2212360;40;20034;-82
2021/07/22 02:31:50;;;;;;;8.95;5.10;;;;;;;18.07;61.22;100256.16;2214053;40;20042;-80
2021/07/22 02:33:22;;;;;;;7.50;5.72;;;;;;;18.00;61.68;100262.50;2207718;40;20038;-79
2021/07/22 02:34:55;;;;;;;10.43;5.88;;;;;;;17.86;61.87;100265.00;2210525;40;20038;-79
2021/07/22 02:36:26;;;;;;;13.05;5.70;;;;;;;17.83;62.06;100267.22;2205642;40;20065;-79
2021/07/22 02:37:59;;;;;;;9.25;4.65;;;;;;;17.80;62.14;100268.44;2206547;40;20062;-80
2021/07/22 02:39:35;;;;;;;10.05;5.25;;;;;;;17.81;62.10;100270.13;2206485;40;20053;-80
2021/07/22 02:41:06;;;;;;;11.00;5.70;;;;;;;17.81;62.31;100271.97;2206420;40;20038;-79
2021/07/22 02:42:44;;;;;;;10.32;4.75;;;;;;;17.81;62.09;100270.13;2208576;40;20075;-80
2021/07/22 02:44:15;;;;;;;7.10;4.63;;;;;;;17.89;62.05;100271.91;2206247;40;20038;-80
2021/07/22 02:45:47;;;;;;;8.30;4.90;;;;;;;17.96;61.94;100269.28;2207033;40;20026;-78
2021/07/22 02:47:19;;;;;;;8.35;4.70;;;;;;;17.98;61.84;100267.25;2207801;40;20042;-79
2021/07/22 02:48:55;;;;;;;8.00;4.47;;;;;;;18.03;61.41;100275.66;2209180;40;20041;-78
2021/07/22 02:50:26;;;;;;;9.38;5.03;;;;;;;18.06;61.45;100276.13;2204839;40;20026;-80
2021/07/22 02:52:07;;;;;;;10.45;5.55;;;;;;;18.10;61.48;100271.16;2207279;40;20050;-79
2021/07/22 02:53:40;;;;;;;7.35;4.88;;;;;;;18.13;61.46;100278.06;2206510;40;20042;-80
2021/07/22 02:55:13;;;;;;;6.70;4.47;;;;;;;18.15;61.44;100268.72;2206694;40;20034;-79
2021/07/22 02:56:45;;;;;;;8.40;4.80;;;;;;;18.16;61.44;100270.41;2206722;40;20037;-79
2021/07/22 02:58:17;;;;;;;7.57;4.45;;;;;;;18.13;61.53;100270.81;2205853;40;20041;-79
2021/07/22 02:59:48;;;;;;;8.43;5.05;;;;;;;18.09;61.40;100274.91;2205415;40;20038;-80
2021/07/22 03:01:19;;;;;;;9.00;4.85;;;;;;;18.05;61.99;100273.59;2206150;40;20142;-79
2021/07/22 03:02:51;;;;;;;12.98;5.57;;;;;;;18.03;61.90;100275.66;2207781;40;20034;-79
2021/07/22 03:04:23;;;;;;;12.55;6.10;;;;;;;17.98;62.15;100275.38;2207068;40;20042;-79
2021/07/22 03:05:54;;;;;;;9.77;6.20;;;;;;;17.87;62.43;100274.78;2204414;40;20043;-80
2021/07/22 03:07:26;;;;;;;8.23;5.22;;;;;;;17.79;62.62;100277.59;2202936;40;20033;-80
2021/07/22 03:08:58;;;;;;;8.68;4.75;;;;;;;17.77;62.75;100282.34;2203145;40;20037;-80
2021/07/22 03:10:30;;;;;;;9.10;5.65;;;;;;;17.77;62.56;100282.34;2204686;40;20424;-78
2021/07/22 03:12:02;;;;;;;10.30;5.68;;;;;;;17.80;62.67;100281.97;2203518;40;20050;-79
2021/07/22 03:13:35;;;;;;;7.57;4.57;;;;;;;17.80;62.44;100291.97;2203981;40;20037;-80
2021/07/22 03:15:08;;;;;;;7.70;5.65;;;;;;;17.80;62.77;100289.25;2204490;40;20303;-79
2021/07/22 03:16:39;;;;;;;8.35;5.10;;;;;;;17.73;62.61;100289.97;2195983;40;20023;-79
2021/07/22 03:18:10;;;;;;;8.90;5.35;;;;;;;17.71;62.87;100297.44;2197569;40;20082;-80
2021/07/22 03:19:42;;;;;;;10.02;5.38;;;;;;;17.69;63.01;100291.41;2197298;40;20031;-79
2021/07/22 03:21:14;;;;;;;7.22;5.03;;;;;;;17.70;63.16;100292.22;2198151;40;20050;-79
2021/07/22 03:22:46;;;;;;;8.25;5.10;;;;;;;17.71;63.14;100294.72;2198121;40;20059;-79
2021/07/22 03:24:19;;;;;;;7.68;4.68;;;;;;;17.72;62.95;100299.13;2201157;40;20094;-78
2021/07/22 03:25:52;;;;;;;7.30;4.82;;;;;;;17.75;63.04;100287.13;2200552;40;20302;-79
2021/07/22 03:27:23;;;;;;;6.90;4.50;;;;;;;17.80;62.71;100292.78;2198953;40;20049;-79
2021/07/22 03:28:54;;;;;;;9.55;4.70;;;;;;;17.78;62.81;100289.44;2197801;40;20039;-80
2021/07/22 03:30:26;;;;;;;9.40;5.78;;;;;;;17.79;62.69;100296.50;2197436;40;20039;-79
2021/07/22 03:31:58;;;;;;;11.23;5.55;;;;;;;17.72;62.81;100296.41;2191285;40;20039;-79
2021/07/22 03:33:29;;;;;;;11.10;6.70;;;;;;;17.59;63.20;100285.41;2197421;40;20041;-79
2021/07/22 03:35:00;;;;;;;11.77;5.88;;;;;;;17.50;63.44;100292.75;2197821;40;20059;-79
2021/07/22 03:36:32;;;;;;;18.38;6.60;;;;;;;17.44;63.92;100293.50;2197896;40;20057;-79
2021/07/22 03:38:04;;;;;;;8.20;4.90;;;;;;;17.49;63.91;100284.84;2196371;40;20031;-80
2021/07/22 03:39:37;;;;;;;11.93;5.80;;;;;;;17.52;63.44;100289.91;2196707;40;20575;-79
2021/07/22 03:41:13;;;;;;;12.18;6.40;;;;;;;17.35;64.10;100284.63;2199347;40;20437;-80
2021/07/22 03:42:45;;;;;;;8.65;5.15;;;;;;;17.29;64.40;100290.78;2199715;40;20038;-79
2021/07/22 03:44:15;;;;;;;11.73;5.53;;;;;;;17.26;64.37;100286.59;2197658;40;20039;-79
2021/07/22 03:45:47;;;;;;;10.23;5.43;;;;;;;17.21;64.26;100301.66;2199451;40;20073;-80
2021/07/22 03:47:18;;;;;;;9.38;5.95;;;;;;;17.14;64.46;100296.97;2199593;40;20035;-80
2021/07/22 03:48:50;;;;;;;8.98;5.78;;;;;;;17.05;64.54;100291.81;2196705;40;20543;-79
2021/07/22 03:50:22;;;;;;;10.23;5.95;;;;;;;16.99;64.81;100299.66;2197068;40;20038;-79
2021/07/22 03:51:54;;;;;;;8.93;5.13;;;;;;;16.93;64.99;100297.66;2197437;40;20090;-80
2021/07/22 03:53:28;;;;;;;9.80;6.15;;;;;;;16.88;65.04;100299.16;2197692;40;20045;-79
2021/07/22 03:55:00;;;;;;;15.30;6.10;;;;;;;16.79;65.58;100295.72;2197944;40;20035;-79
2021/07/22 03:56:32;;;;;;;11.88;6.22;;;;;;;16.77;65.64;100300.44;2197385;40;20387;-80
2021/07/22 03:58:04;;;;;;;8.55;5.80;;;;;;;16.73;65.76;100293.72;2197124;40;20051;-79
2021/07/22 03:59:34;;;;;;;8.60;6.13;;;;;;;16.78;65.74;100294.03;2198131;40;20696;-79
2021/07/22 04:01:07;;;;;;;10.57;5.95;;;;;;;16.82;65.32;100295.31;2197661;40;20121;-79
2021/07/22 04:02:37;;;;;;;8.13;5.60;;;;;;;16.87;65.36;100305.59;2197236;40;20312;-79
2021/07/22 04:04:09;;;;;;;8.63;5.45;;;;;;;16.89;65.26;100300.84;2197961;40;20058;-80
2021/07/22 04:05:41;;;;;;;10.70;5.95;;;;;;;16.89;65.31;100304.41;2197383;40;20035;-79
2021/07/22 04:07:12;;;;;;;12.95;6.78;;;;;;;16.85;65.49;100305.78;2196827;40;20050;-80
2021/07/22 04:08:43;;;;;;;9.57;6.03;;;;;;;16.78;65.81;100299.41;2196806;40;20046;-79
2021/07/22 04:10:17;;;;;;;8.93;5.45;;;;;;;16.77;65.89;100309.38;2196503;40;20115;-79
2021/07/22 04:11:48;;;;;;;8.43;5.43;;;;;;;16.78;65.83;100305.66;2197119;40;20038;-79
2021/07/22 04:13:20;;;;;;;11.60;5.90;;;;;;;16.86;65.65;100309.34;2196175;40;20043;-79
2021/07/22 04:14:51;;;;;;;8.95;6.20;;;;;;;16.92;65.62;100306.72;2199339;40;20078;-80
2021/07/22 04:16:23;;;;;;;10.45;6.53;;;;;;;16.98;65.19;100303.38;2204464;40;20075;-80
2021/07/22 04:17:55;;;;;;;10.98;6.68;;;;;;;16.94;65.53;100304.72;2204458;40;20426;-79
2021/07/22 04:19:27;;;;;;;21.33;11.80;;;;;;;16.85;65.89;100311.19;2202820;40;20595;-79
2021/07/22 04:21:00;;;;;;;10.73;7.00;;;;;;;16.81;65.93;100309.88;2203266;40;20288;-79
2021/07/22 04:22:32;;;;;;;13.40;7.78;;;;;;;16.78;65.93;100304.81;2202818;40;20113;-80
2021/07/22 04:24:06;;;;;;;11.48;7.53;;;;;;;16.79;65.86;100312.72;2206960;40;20096;-79
2021/07/22 04:25:39;;;;;;;12.98;7.60;;;;;;;16.77;66.03;100308.53;2203708;40;20051;-79
2021/07/22 04:27:11;;;;;;;9.38;6.38;;;;;;;16.76;66.13;100317.66;2203139;40;20057;-81
2021/07/22 04:28:43;;;;;;;10.07;5.35;;;;;;;16.77;66.07;100319.34;2203509;40;20034;-80
2021/07/22 04:30:15;;;;;;;8.38;5.93;;;;;;;16.81;65.97;100312.56;2202405;40;20025;-82
2021/07/22 04:31:46;;;;;;;9.98;6.18;;;;;;;16.85;65.83;100316.56;2206267;40;20038;-80
2021/07/22 04:33:20;;;;;;;7.95;5.85;;;;;;;16.79;65.98;100306.50;2202758;40;20042;-80
2021/07/22 04:35:01;;;;;;;12.95;6.85;;;;;;;16.80;65.98;100319.00;2201464;40;20042;-80
2021/07/22 04:36:41;;;;;;;10.80;5.65;;;;;;;16.87;65.92;100319.94;2204076;40;20381;-82
2021/07/22 04:38:12;;;;;;;12.50;6.15;;;;;;;16.89;66.00;100317.91;2208154;40;20026;-80
2021/07/22 04:39:46;;;;;;;10.68;6.72;;;;;;;16.86;66.10;100317.44;2210274;40;20045;-80
2021/07/22 04:41:19;;;;;;;11.70;6.60;;;;;;;16.87;66.20;100336.13;2202379;40;20041;-79
2021/07/22 04:42:51;;;;;;;11.60;7.43;;;;;;;16.89;65.84;100320.63;2203168;40;20030;-80
2021/07/22 04:44:22;;;;;;;18.15;6.60;;;;;;;16.88;66.19;100318.94;2203278;40;20038;-80
2021/07/22 04:45:53;;;;;;;10.95;7.13;;;;;;;16.91;66.04;100317.72;2204404;40;20039;-80
2021/07/22 04:47:25;;;;;;;8.82;5.95;;;;;;;16.96;66.00;100315.34;2202828;40;20038;-80
2021/07/22 04:48:56;;;;;;;10.65;6.60;;;;;;;17.03;65.67;100323.56;2204071;40;20034;-80
2021/07/22 04:50:28;;;;;;;11.82;6.63;;;;;;;17.06;65.41;100324.03;2202285;40;20030;-80
2021/07/22 04:52:00;;;;;;;11.40;5.82;;;;;;;17.10;65.16;100319.13;2202727;40;20038;-80
2021/07/22 04:53:33;;;;;;;9.77;6.85;;;;;;;17.14;64.89;100315.03;2203677;40;20038;-79
2021/07/22 04:55:05;;;;;;;11.10;6.05;;;;;;;17.17;64.70;100313.84;2200208;40;20726;-79
2021/07/22 04:56:38;;;;;;;15.10;6.88;;;;;;;17.22;64.81;100317.66;2202750;40;20570;-79
2021/07/22 04:58:11;;;;;;;10.98;6.50;;;;;;;17.29;64.32;100313.22;2202927;40;20089;-81
2021/07/22 04:59:44;;;;;;;10.80;6.03;;;;;;;17.33;64.10;100318.25;2202593;40;20038;-80
2021/07/22 05:01:39;;;;;;;8.82;6.10;;;;;;;17.27;64.37;100315.28;2204924;40;20430;-83
2021/07/22 05:03:26;;;;;;;9.45;5.43;;;;;;;17.26;64.23;100313.59;2208094;40;20051;-83
2021/07/22 05:25:59;;;;;;;11.77;7.13;;;;;;;17.57;63.22;100309.09;2203126;40;20052;-81
2021/07/22 05:27:31;;;;;;;8.25;5.65;;;;;;;17.60;63.04;100304.16;2206787;40;20030;-81
2021/07/22 05:29:02;;;;;;;10.25;5.28;;;;;;;17.69;62.82;100314.88;2209529;40;20038;-81
2021/07/22 05:30:34;;;;;;;9.60;5.53;;;;;;;17.81;62.63;100305.28;2204220;40;20042;-82
2021/07/22 05:32:06;;;;;;;9.18;6.28;;;;;;;17.81;62.62;100307.13;2204622;40;20045;-80
2021/07/22 05:35:30;;;;;;;7.97;5.70;;;;;;;17.87;62.60;100312.63;2208782;40;20052;-80
2021/07/22 05:37:38;;;;;;;10.48;6.00;;;;;;;17.95;62.14;100308.19;2216059;40;20070;-80
2021/07/22 05:39:25;;;;;;;10.88;6.32;;;;;;;18.01;62.08;100310.16;2189471;40;20042;-80
2021/07/22 05:41:00;;;;;;;8.50;4.93;;;;;;;18.08;61.86;100313.78;2188397;40;20350;-79
2021/07/22 05:42:37;;;;;;;11.60;5.93;;;;;;;18.12;61.66;100312.41;2187935;40;20055;-80
2021/07/22 05:44:13;;;;;;;9.02;5.70;;;;;;;18.13;61.66;100308.69;2187412;40;20047;-81
2021/07/22 05:46:18;;;;;;;11.02;6.70;;;;;;;18.10;61.27;100303.63;2183112;40;20032;-80
2021/07/22 05:47:51;;;;;;;10.25;6.88;;;;;;;18.11;61.46;100316.13;2183986;40;20143;-82
2021/07/22 05:50:22;;;;;;;10.70;7.25;;;;;;;18.14;61.57;100309.50;2189675;40;20036;-85
2021/07/22 05:52:00;;;;;;;9.45;7.20;;;;;;;18.06;61.61;100318.53;2184592;40;20655;-85
2021/07/22 06:00:09;;;;;;;11.90;7.15;;;;;;;18.21;61.69;100313.97;2211352;40;20034;-80
2021/07/22 06:01:41;;;;;;;11.85;6.32;;;;;;;18.24;61.73;100323.56;2212950;40;20085;-81
2021/07/22 06:03:12;;;;;;;10.57;5.88;;;;;;;18.35;61.61;100317.69;2211306;40;20515;-82
2021/07/22 06:04:44;;;;;;;7.50;5.05;;;;;;;18.47;61.27;100320.75;2212804;40;20059;-82
2021/07/22 06:06:15;;;;;;;9.95;6.10;;;;;;;18.55;61.03;100315.22;2211896;40;20034;-83
2021/07/22 06:07:46;;;;;;;8.88;5.90;;;;;;;18.64;60.81;100318.66;2212396;40;20607;-83
2021/07/22 06:09:18;;;;;;;8.60;5.53;;;;;;;18.71;60.48;100322.25;2208875;40;20054;-85
2021/07/22 06:10:49;;;;;;;9.05;6.25;;;;;;;18.72;60.54;100312.25;2207940;40;20037;-83
2021/07/22 06:12:21;;;;;;;9.65;5.85;;;;;;;18.73;60.25;100310.41;2207164;40;20038;-83
2021/07/22 06:13:52;;;;;;;11.85;5.80;;;;;;;18.78;60.23;100307.94;2207884;40;20395;-85
2021/07/22 06:15:26;;;;;;;9.98;6.35;;;;;;;18.82;60.15;100306.53;2208042;40;20034;-83
2021/07/22 06:16:57;;;;;;;8.75;5.88;;;;;;;18.88;60.03;100310.34;2208111;40;20034;-82
2021/07/22 06:18:29;;;;;;;12.98;6.78;;;;;;;18.93;59.96;100316.03;2213794;40;20038;-84
2021/07/22 06:20:00;;;;;;;11.93;6.90;;;;;;;18.94;59.98;100309.59;2213897;40;20066;-84
2021/07/22 06:21:32;;;;;;;10.75;6.45;;;;;;;18.91;59.72;100320.78;2207309;40;20045;-83
2021/07/22 06:23:03;;;;;;;8.95;5.90;;;;;;;18.90;59.86;100314.53;2205970;40;20038;-83
2021/07/22 06:24:35;;;;;;;9.98;6.05;;;;;;;18.94;59.94;100315.00;2206650;40;20045;-85
2021/07/22 06:26:07;;;;;;;17.83;7.18;;;;;;;18.98;59.62;100321.75;2207035;40;20034;-84
2021/07/22 06:27:37;;;;;;;11.32;6.97;;;;;;;18.75;60.46;100320.00;2206824;40;20030;-83
2021/07/22 06:29:09;;;;;;;15.15;7.07;;;;;;;18.67;60.81;100317.41;2208031;40;20022;-83
2021/07/22 06:30:41;;;;;;;9.23;6.22;;;;;;;18.64;60.81;100312.38;2206735;40;20041;-86
2021/07/22 06:32:13;;;;;;;14.10;6.47;;;;;;;18.74;61.02;100323.75;2207286;40;20042;-83
2021/07/22 06:33:45;;;;;;;10.55;5.75;;;;;;;18.84;60.38;100318.84;2206072;40;20045;-83
2021/07/22 06:35:17;;;;;;;12.40;6.72;;;;;;;18.91;60.48;100318.06;2205783;40;20034;-82
2021/07/22 06:36:48;;;;;;;12.23;6.70;;;;;;;18.97;60.27;100320.88;2206285;40;20041;-84
2021/07/22 06:38:19;;;;;;;10.40;5.75;;;;;;;19.05;60.23;100319.91;2207015;40;20038;-84
2021/07/22 06:39:51;;;;;;;10.32;6.22;;;;;;;19.15;60.01;100323.16;2207911;40;20042;-81
2021/07/22 06:41:23;;;;;;;11.60;6.72;;;;;;;19.20;59.58;100324.41;2218162;40;20298;-81
2021/07/22 06:42:53;;;;;;;12.02;6.85;;;;;;;19.15;59.49;100323.16;2219016;40;20037;-81
2021/07/22 06:44:25;;;;;;;8.95;6.25;;;;;;;19.12;59.96;100320.81;2210132;40;20038;-80
2021/07/22 06:45:59;;;;;;;10.02;6.68;;;;;;;19.20;59.49;100332.53;2215694;40;20045;-81
2021/07/22 06:47:30;;;;;;;9.73;6.13;;;;;;;19.26;59.55;100329.06;2221955;40;20048;-81
2021/07/22 06:49:02;;;;;;;9.18;7.13;;;;;;;19.27;59.31;100323.44;2218733;40;20033;-82
2021/07/22 06:50:33;;;;;;;10.48;6.80;;;;;;;19.35;59.17;100321.63;2222903;40;20026;-79
2021/07/22 06:52:06;;;;;;;14.55;7.20;;;;;;;19.40;59.23;100325.44;2222677;40;20107;-82
2021/07/22 06:53:38;;;;;;;14.63;6.18;;;;;;;19.49;58.97;100318.00;2218217;40;20037;-81
2021/07/22 06:55:11;;;;;;;16.38;7.63;;;;;;;19.54;59.20;100317.41;2220715;40;20042;-81
2021/07/22 06:56:42;;;;;;;15.25;7.00;;;;;;;19.67;58.92;100319.38;2215416;40;20037;-81
2021/07/22 06:58:14;;;;;;;10.48;7.50;;;;;;;19.80;58.37;100319.44;2212078;40;20061;-81
2021/07/22 06:59:45;;;;;;;11.73;7.05;;;;;;;19.92;58.29;100315.19;2210517;40;20060;-80
2021/07/22 07:01:18;;;;;;;9.77;6.53;;;;;;;20.07;57.51;100314.22;2207834;40;20070;-81
2021/07/22 07:02:49;;;;;;;12.50;6.22;;;;;;;20.19;56.89;100311.78;2215527;40;20030;-82
2021/07/22 07:04:20;;;;;;;10.77;6.65;;;;;;;20.32;56.84;100311.00;2209169;40;20041;-83
2021/07/22 07:05:52;;;;;;;11.98;6.75;;;;;;;20.36;56.47;100307.66;2210887;40;20022;-81
2021/07/22 07:07:24;;;;;;;14.00;7.05;;;;;;;20.24;56.65;100309.28;2212050;40;20065;-82
2021/07/22 07:08:56;;;;;;;13.35;6.40;;;;;;;20.27;56.66;100308.88;2210069;40;20037;-82
2021/07/22 07:10:28;;;;;;;10.18;6.05;;;;;;;20.34;56.55;100309.75;2214717;40;20046;-81
2021/07/22 07:11:59;;;;;;;10.18;6.07;;;;;;;20.52;56.12;100313.75;2217546;40;20038;-83
2021/07/22 07:13:31;;;;;;;9.15;5.50;;;;;;;20.67;55.90;100314.47;2215865;40;20029;-83
2021/07/22 07:15:01;;;;;;;9.45;6.38;;;;;;;20.84;55.33;100300.53;2217807;40;20040;-82
2021/07/22 07:16:35;;;;;;;12.15;6.05;;;;;;;21.00;54.80;100307.44;2218695;40;20034;-83
2021/07/22 07:18:06;;;;;;;9.15;6.07;;;;;;;21.06;54.71;100308.50;2218481;40;20053;-84
2021/07/22 07:19:38;;;;;;;15.02;9.20;;;;;;;21.17;54.46;100307.84;2218510;40;20038;-83
2021/07/22 07:21:09;;;;;;;10.60;7.10;;;;;;;21.20;54.25;100312.88;2218347;40;20040;-83
2021/07/22 07:22:41;;;;;;;10.95;6.50;;;;;;;21.20;54.50;100302.00;2217819;40;20042;-83
2021/07/22 07:24:11;;;;;;;10.35;7.30;;;;;;;21.27;54.22;100302.84;2217611;40;20045;-83
2021/07/22 07:25:43;;;;;;;8.63;5.90;;;;;;;21.40;53.88;100303.88;2218108;40;20029;-82
2021/07/22 07:27:14;;;;;;;12.20;6.38;;;;;;;21.52;53.45;100296.78;2218071;40;20049;-83
2021/07/22 07:28:46;;;;;;;9.70;5.43;;;;;;;21.59;53.40;100300.34;2217598;40;20038;-84
2021/07/22 07:30:19;;;;;;;11.48;6.25;;;;;;;21.69;52.95;100299.06;2205519;40;20037;-84
2021/07/22 07:31:58;;;;;;;11.25;6.32;;;;;;;21.77;52.80;100291.50;2210479;40;20358;-84
2021/07/22 07:33:28;;;;;;;20.38;6.00;;;;;;;21.79;52.96;100294.84;2212948;40;20058;-82
2021/07/22 07:35:00;;;;;;;9.68;5.93;;;;;;;21.88;52.79;100292.75;2212822;40;20389;-83
2021/07/22 07:36:32;;;;;;;9.40;6.68;;;;;;;22.06;52.53;100288.50;2213855;40;20030;-82
2021/07/22 07:38:04;;;;;;;12.77;6.65;;;;;;;22.16;52.06;100291.63;2211465;40;20038;-84
2021/07/22 07:39:34;;;;;;;8.98;5.40;;;;;;;22.24;51.87;100285.91;2212264;40;20029;-84